Time;durP1;ratioP1;P1;durP2;ratioP2;P2;SDS_P1;SDS_P2;PMS_P1;PMS_P2;Temp;Humidity;BMP_temperature;BMP_pressure;BME280_temperature;BME280_humidity;BME280_pressure;Samples;Min_cycle;Max_cycle;Signal;HPM_P1;HPM_P2
2021/05/24 00:00:45;;;;;;;12.82;5.43;;;;;;;;;;5013038;28;20486;-81
2021/05/24 00:03:13;;;;;;;13.23;4.70;;;;;;;;;;5013079;28;20081;-81
2021/05/24 00:05:40;;;;;;;9.25;5.05;;;;;;;;;;5030153;28;20053;-81
2021/05/24 00:08:07;;;;;;;14.15;5.13;;;;;;;;;;5030215;28;20091;-82
2021/05/24 00:10:36;;;;;;;8.45;5.22;;;;;;;;;;5012923;28;20076;-80
2021/05/24 00:13:05;;;;;;;6.78;4.53;;;;;;;;;;5012727;28;20046;-81
2021/05/24 00:15:35;;;;;;;6.93;4.38;;;;;;;;;;5030421;28;20072;-81
2021/05/24 00:18:02;;;;;;;11.63;5.25;;;;;;;;;;5030332;28;20103;-80
2021/05/24 00:20:31;;;;;;;9.85;5.07;;;;;;;;;;5029657;28;20833;-81
2021/05/24 00:22:59;;;;;;;13.00;4.68;;;;;;;;;;5012416;28;20099;-81
2021/05/24 00:25:28;;;;;;;10.13;4.97;;;;;;;;;;5012092;28;20085;-81
2021/05/24 00:27:56;;;;;;;9.07;4.63;;;;;;;;;;5030226;28;20677;-80
2021/05/24 00:30:26;;;;;;;11.50;5.15;;;;;;;;;;5029537;28;20116;-81
2021/05/24 00:32:53;;;;;;;8.27;5.00;;;;;;;;;;5029452;28;20045;-81
2021/05/24 00:35:21;;;;;;;10.32;5.00;;;;;;;;;;5028919;28;20160;-81
2021/05/24 00:37:48;;;;;;;15.27;5.57;;;;;;;;;;5050745;22;20063;-79
2021/05/24 00:40:15;;;;;;;10.27;5.43;;;;;;;;;;5069450;28;20075;-79
2021/05/24 00:42:47;;;;;;;9.68;5.20;;;;;;;;;;5070661;28;20072;-79
2021/05/24 00:45:15;;;;;;;8.77;4.93;;;;;;;;;;5069123;28;20076;-79
2021/05/24 00:47:42;;;;;;;9.20;5.47;;;;;;;;;;5070725;28;20428;-79
2021/05/24 00:50:10;;;;;;;9.07;4.82;;;;;;;;;;5070698;28;20076;-79
2021/05/24 00:52:37;;;;;;;7.95;4.82;;;;;;;;;;5069586;28;20036;-79
2021/05/24 00:55:06;;;;;;;12.13;4.43;;;;;;;;;;5068809;28;20399;-78
2021/05/24 00:57:34;;;;;;;11.18;5.22;;;;;;;;;;5069039;28;20055;-78
2021/05/24 01:00:02;;;;;;;10.45;5.00;;;;;;;;;;5070466;28;20082;-79
2021/05/24 01:02:29;;;;;;;6.53;4.63;;;;;;;;;;5069177;28;20113;-79
2021/05/24 01:04:56;;;;;;;12.57;5.25;;;;;;;;;;5070299;28;20094;-78
2021/05/24 01:07:23;;;;;;;12.15;5.45;;;;;;;;;;5070579;28;20521;-79
2021/05/24 01:09:50;;;;;;;9.13;5.25;;;;;;;;;;5070509;28;20741;-78
2021/05/24 01:12:19;;;;;;;12.82;5.63;;;;;;;;;;5070060;28;20040;-78
2021/05/24 01:14:46;;;;;;;13.95;5.30;;;;;;;;;;5069580;28;20087;-78
2021/05/24 01:17:13;;;;;;;9.07;5.50;;;;;;;;;;5069194;28;20066;-79
2021/05/24 01:19:45;;;;;;;10.35;4.88;;;;;;;;;;5070046;28;20092;-78
2021/05/24 01:22:16;;;;;;;11.80;5.15;;;;;;;;;;5068807;28;20485;-79
2021/05/24 01:24:44;;;;;;;10.35;5.00;;;;;;;;;;5069698;28;20118;-79
2021/05/24 01:27:11;;;;;;;13.15;5.45;;;;;;;;;;5068472;28;20098;-79
2021/05/24 01:29:39;;;;;;;11.63;5.72;;;;;;;;;;5088455;28;20044;-79
2021/05/24 01:32:07;;;;;;;12.82;5.47;;;;;;;;;;5089725;28;20076;-79
2021/05/24 01:34:35;;;;;;;11.32;5.78;;;;;;;;;;5068371;28;20091;-78
2021/05/24 01:37:03;;;;;;;15.27;5.97;;;;;;;;;;5068355;28;20053;-79
2021/05/24 01:39:31;;;;;;;10.65;6.45;;;;;;;;;;5069389;28;20095;-79
2021/05/24 01:41:58;;;;;;;15.38;6.72;;;;;;;;;;5069923;28;20083;-79
2021/05/24 01:44:28;;;;;;;14.13;6.93;;;;;;;;;;5069909;28;20123;-79
2021/05/24 01:46:56;;;;;;;10.82;6.63;;;;;;;;;;5069101;28;20084;-79
2021/05/24 01:49:23;;;;;;;13.05;6.68;;;;;;;;;;5069324;28;20078;-79
2021/05/24 01:51:51;;;;;;;9.65;6.18;;;;;;;;;;5069019;28;20079;-79
2021/05/24 01:54:19;;;;;;;12.25;6.53;;;;;;;;;;5069134;28;20699;-79
2021/05/24 01:56:46;;;;;;;12.82;6.13;;;;;;;;;;5068905;28;20052;-79
2021/05/24 01:59:13;;;;;;;12.38;6.32;;;;;;;;;;5070446;28;20084;-79
2021/05/24 02:01:41;;;;;;;13.68;6.55;;;;;;;;;;5068775;28;20053;-79
2021/05/24 02:04:08;;;;;;;12.35;5.30;;;;;;;;;;5068306;28;20076;-79
2021/05/24 02:06:35;;;;;;;8.90;5.97;;;;;;;;;;5068726;28;20136;-78
2021/05/24 02:09:11;;;;;;;13.68;6.07;;;;;;;;;;5071269;28;20098;-78
2021/05/24 02:11:38;;;;;;;12.30;6.25;;;;;;;;;;5072403;28;20052;-79
2021/05/24 02:14:05;;;;;;;13.35;6.32;;;;;;;;;;5071939;28;20796;-79
2021/05/24 02:16:45;;;;;;;14.00;5.90;;;;;;;;;;5072108;28;20106;-79
2021/05/24 02:19:13;;;;;;;14.18;6.28;;;;;;;;;;5073683;28;20390;-79
2021/05/24 02:21:41;;;;;;;14.43;6.95;;;;;;;;;;5072024;28;20102;-79
2021/05/24 02:24:09;;;;;;;12.43;5.30;;;;;;;;;;5071440;28;20055;-78
2021/05/24 02:26:36;;;;;;;9.98;6.57;;;;;;;;;;5073349;28;20500;-78
2021/05/24 02:29:07;;;;;;;10.05;5.70;;;;;;;;;;5070937;28;20607;-79
2021/05/24 02:31:35;;;;;;;11.77;6.43;;;;;;;;;;5073089;28;20102;-79
2021/05/24 02:34:03;;;;;;;14.02;6.32;;;;;;;;;;5072685;28;20091;-79
2021/05/24 02:36:31;;;;;;;12.07;5.68;;;;;;;;;;5065907;28;20171;-78
2021/05/24 02:38:59;;;;;;;15.10;6.22;;;;;;;;;;5067542;28;20271;-77
2021/05/24 02:41:26;;;;;;;10.52;6.38;;;;;;;;;;5071099;28;20497;-78
2021/05/24 02:43:55;;;;;;;11.43;6.30;;;;;;;;;;5072537;28;20447;-78
2021/05/24 02:46:22;;;;;;;8.70;6.03;;;;;;;;;;5071653;28;20045;-78
2021/05/24 02:48:49;;;;;;;12.15;6.75;;;;;;;;;;5071571;28;20462;-78
2021/05/24 02:51:16;;;;;;;10.70;6.18;;;;;;;;;;5071261;28;20606;-78
2021/05/24 02:53:44;;;;;;;10.05;6.25;;;;;;;;;;5070524;28;20135;-78
2021/05/24 02:56:11;;;;;;;13.02;5.97;;;;;;;;;;5070793;28;20527;-78
2021/05/24 02:58:38;;;;;;;12.90;6.35;;;;;;;;;;5066548;28;20045;-78
2021/05/24 03:01:05;;;;;;;9.82;7.05;;;;;;;;;;5065068;28;20730;-78
2021/05/24 03:03:33;;;;;;;10.95;6.32;;;;;;;;;;5067734;28;20052;-78
2021/05/24 03:06:02;;;;;;;13.13;6.30;;;;;;;;;;5071605;28;20048;-78
2021/05/24 03:08:29;;;;;;;12.82;6.45;;;;;;;;;;5070986;28;20110;-78
2021/05/24 03:10:59;;;;;;;11.57;6.20;;;;;;;;;;5071846;28;20056;-78
2021/05/24 03:13:27;;;;;;;10.27;6.65;;;;;;;;;;5070053;28;20053;-78
2021/05/24 03:15:55;;;;;;;10.95;6.03;;;;;;;;;;5070613;28;20060;-78
2021/05/24 03:18:22;;;;;;;10.93;6.28;;;;;;;;;;5071949;28;20075;-78
2021/05/24 03:20:50;;;;;;;12.40;6.68;;;;;;;;;;5071589;28;20661;-78
2021/05/24 03:23:17;;;;;;;12.63;6.72;;;;;;;;;;5070779;28;20084;-78
2021/05/24 03:25:45;;;;;;;8.15;5.75;;;;;;;;;;5064574;28;20072;-78
2021/05/24 03:28:12;;;;;;;8.70;6.32;;;;;;;;;;5064433;28;20093;-79
2021/05/24 03:30:39;;;;;;;11.27;6.82;;;;;;;;;;5064663;28;20498;-78
2021/05/24 03:33:06;;;;;;;20.65;6.95;;;;;;;;;;5066078;28;20076;-78
2021/05/24 03:35:34;;;;;;;10.75;6.38;;;;;;;;;;5065818;28;20173;-79
2021/05/24 03:38:02;;;;;;;21.10;7.53;;;;;;;;;;5066170;28;20143;-78
2021/05/24 03:40:29;;;;;;;16.23;7.22;;;;;;;;;;5069983;28;20058;-78
2021/05/24 03:42:56;;;;;;;12.32;6.32;;;;;;;;;;5070761;28;20528;-79
2021/05/24 03:45:31;;;;;;;11.93;6.70;;;;;;;;;;5070438;28;20123;-79
2021/05/24 03:47:59;;;;;;;11.82;6.75;;;;;;;;;;5070412;28;20159;-78
2021/05/24 03:50:26;;;;;;;11.05;6.47;;;;;;;;;;5071352;28;20374;-78
2021/05/24 03:52:53;;;;;;;12.20;6.72;;;;;;;;;;5070698;28;20106;-79
2021/05/24 03:55:21;;;;;;;11.10;6.57;;;;;;;;;;5069685;28;20057;-79
2021/05/24 03:57:49;;;;;;;13.50;6.28;;;;;;;;;;5070274;28;20087;-78
2021/05/24 04:00:17;;;;;;;9.48;5.85;;;;;;;;;;5070995;28;20137;-78
2021/05/24 04:02:44;;;;;;;10.98;5.72;;;;;;;;;;5070141;28;20044;-78
2021/05/24 04:05:22;;;;;;;12.48;6.68;;;;;;;;;;5067725;28;20072;-78
2021/05/24 04:07:52;;;;;;;8.13;5.43;;;;;;;;;;5067328;28;20140;-78
2021/05/24 04:10:22;;;;;;;12.43;5.72;;;;;;;;;;5065491;28;20052;-78
2021/05/24 04:12:49;;;;;;;9.93;6.20;;;;;;;;;;5069548;28;20049;-78
2021/05/24 04:15:17;;;;;;;12.57;6.15;;;;;;;;;;5068272;28;20475;-78
2021/05/24 04:17:47;;;;;;;11.23;6.05;;;;;;;;;;5069411;28;20135;-78
2021/05/24 04:20:15;;;;;;;11.75;6.40;;;;;;;;;;5069982;28;20087;-79
2021/05/24 04:22:42;;;;;;;16.92;6.35;;;;;;;;;;5070344;28;20121;-78
2021/05/24 04:25:10;;;;;;;9.63;6.63;;;;;;;;;;5065341;28;20147;-79
2021/05/24 04:27:37;;;;;;;10.98;6.28;;;;;;;;;;5066393;28;20493;-79
2021/05/24 04:30:05;;;;;;;13.80;6.57;;;;;;;;;;5070248;28;20048;-79
2021/05/24 04:32:33;;;;;;;10.10;6.18;;;;;;;;;;5070676;28;20090;-78
2021/05/24 04:35:01;;;;;;;13.30;6.05;;;;;;;;;;5070255;28;20052;-79
2021/05/24 04:37:28;;;;;;;9.50;5.68;;;;;;;;;;5069302;28;20064;-78
2021/05/24 04:39:56;;;;;;;8.75;5.90;;;;;;;;;;5068801;28;20612;-78
2021/05/24 04:42:23;;;;;;;16.20;6.07;;;;;;;;;;5068546;28;20122;-78
2021/05/24 04:44:51;;;;;;;12.70;5.50;;;;;;;;;;5070152;28;20139;-78
2021/05/24 04:47:18;;;;;;;9.65;5.55;;;;;;;;;;5070805;28;20072;-80
2021/05/24 04:49:52;;;;;;;10.68;5.13;;;;;;;;;;5069902;28;20068;-80
2021/05/24 04:52:19;;;;;;;8.90;5.40;;;;;;;;;;5069794;28;20040;-80
2021/05/24 04:54:47;;;;;;;9.45;6.13;;;;;;;;;;5069739;28;20084;-80
2021/05/24 04:57:14;;;;;;;10.02;5.80;;;;;;;;;;5071510;28;20102;-80
2021/05/24 04:59:41;;;;;;;9.40;6.47;;;;;;;;;;5069850;28;20646;-80
2021/05/24 05:02:09;;;;;;;9.80;5.95;;;;;;;;;;5071201;28;20076;-80
2021/05/24 05:04:36;;;;;;;9.60;6.10;;;;;;;;;;5069446;28;20079;-80
2021/05/24 05:07:03;;;;;;;16.15;6.75;;;;;;;;;;5070440;28;20072;-80
2021/05/24 05:09:31;;;;;;;11.00;6.15;;;;;;;;;;5070916;28;20079;-80
2021/05/24 05:11:58;;;;;;;16.60;6.40;;;;;;;;;;5069884;28;20042;-80
2021/05/24 05:14:29;;;;;;;7.85;5.70;;;;;;;;;;5069487;28;20048;-80
2021/05/24 05:16:56;;;;;;;9.90;5.75;;;;;;;;;;5069006;28;20558;-80
2021/05/24 05:19:23;;;;;;;11.88;5.93;;;;;;;;;;5068811;28;20098;-84
2021/05/24 05:21:50;;;;;;;9.23;5.72;;;;;;;;;;5070314;28;20084;-81
2021/05/24 05:24:19;;;;;;;21.13;5.97;;;;;;;;;;5069579;28;20047;-79
2021/05/24 05:26:46;;;;;;;11.70;5.45;;;;;;;;;;5069166;28;20052;-79
2021/05/24 05:29:13;;;;;;;8.05;5.10;;;;;;;;;;5065677;28;20080;-77
2021/05/24 05:31:40;;;;;;;11.57;5.05;;;;;;;;;;5067006;28;20626;-80
2021/05/24 05:34:08;;;;;;;16.73;5.32;;;;;;;;;;5065392;28;20084;-80
2021/05/24 05:36:36;;;;;;;9.60;4.38;;;;;;;;;;5063396;28;20084;-82
2021/05/24 05:39:07;;;;;;;10.98;4.35;;;;;;;;;;5068379;28;20531;-82
2021/05/24 05:41:37;;;;;;;9.30;4.15;;;;;;;;;;5070318;28;20079;-78
2021/05/24 05:44:04;;;;;;;8.02;3.85;;;;;;;;;;5070929;28;20087;-79
2021/05/24 05:46:32;;;;;;;9.75;3.47;;;;;;;;;;5071873;28;20088;-81
2021/05/24 05:49:01;;;;;;;9.30;4.03;;;;;;;;;;5074012;28;20088;-83
2021/05/24 05:51:29;;;;;;;11.02;3.92;;;;;;;;;;5075515;28;20079;-86
2021/05/24 05:53:57;;;;;;;8.70;3.30;;;;;;;;;;5072423;28;20037;-81
2021/05/24 05:56:24;;;;;;;12.85;3.80;;;;;;;;;;5074544;28;20891;-80
2021/05/24 05:58:52;;;;;;;4.63;2.97;;;;;;;;;;5072849;28;20127;-81
2021/05/24 06:01:21;;;;;;;7.50;3.40;;;;;;;;;;5073498;28;20382;-84
2021/05/24 06:03:50;;;;;;;6.03;3.22;;;;;;;;;;5072671;28;20673;-81
2021/05/24 06:06:18;;;;;;;5.35;2.67;;;;;;;;;;5073326;28;20090;-79
2021/05/24 06:08:45;;;;;;;5.53;2.70;;;;;;;;;;5064764;28;20053;-79
2021/05/24 06:11:13;;;;;;;8.82;3.03;;;;;;;;;;5059941;28;20102;-79
2021/05/24 06:13:41;;;;;;;13.40;2.40;;;;;;;;;;5070536;28;20094;-79
2021/05/24 06:16:08;;;;;;;4.03;2.30;;;;;;;;;;5065267;28;20723;-79
2021/05/24 06:18:39;;;;;;;3.08;2.53;;;;;;;;;;5066573;28;20059;-78
2021/05/24 06:21:06;;;;;;;2.25;2.03;;;;;;;;;;5071654;28;20143;-80
2021/05/24 06:23:34;;;;;;;5.63;1.88;;;;;;;;;;5072446;28;20122;-81
2021/05/24 06:26:01;;;;;;;4.75;1.92;;;;;;;;;;5070381;28;20063;-81
2021/05/24 06:28:47;;;;;;;3.58;2.20;;;;;;;;;;5064332;28;20041;-80
2021/05/24 06:31:15;;;;;;;3.28;1.92;;;;;;;;;;5073631;28;20087;-82
2021/05/24 06:33:44;;;;;;;3.70;2.10;;;;;;;;;;5073563;28;20052;-82
2021/05/24 06:36:11;;;;;;;3.08;1.90;;;;;;;;;;5073164;28;20080;-82
2021/05/24 06:38:38;;;;;;;3.60;1.85;;;;;;;;;;5073434;28;20679;-83
2021/05/24 06:41:06;;;;;;;3.35;1.55;;;;;;;;;;5073566;28;20051;-85
2021/05/24 06:43:33;;;;;;;6.10;2.20;;;;;;;;;;5073326;28;20149;-81
2021/05/24 06:46:01;;;;;;;9.93;2.38;;;;;;;;;;5073108;28;20127;-84
2021/05/24 06:48:29;;;;;;;2.50;1.50;;;;;;;;;;5072481;28;20459;-80
2021/05/24 06:50:57;;;;;;;8.27;2.08;;;;;;;;;;5071681;28;20071;-81
2021/05/24 06:53:24;;;;;;;2.05;1.58;;;;;;;;;;5072325;28;20136;-81
2021/05/24 06:55:51;;;;;;;6.25;1.75;;;;;;;;;;5071797;28;20076;-81
2021/05/24 06:58:19;;;;;;;7.13;1.70;;;;;;;;;;5073338;28;20133;-81
2021/05/24 07:00:47;;;;;;;2.72;1.67;;;;;;;;;;5072856;28;20090;-81
2021/05/24 07:03:14;;;;;;;30.00;2.33;;;;;;;;;;5072280;28;20087;-81
2021/05/24 07:05:41;;;;;;;8.38;1.98;;;;;;;;;;5070543;28;20044;-81
2021/05/24 07:08:10;;;;;;;4.30;1.77;;;;;;;;;;5071663;28;20618;-82
2021/05/24 07:10:37;;;;;;;2.08;1.80;;;;;;;;;;5072425;28;20049;-82
2021/05/24 07:13:08;;;;;;;3.42;1.50;;;;;;;;;;5066098;28;20571;-83
2021/05/24 07:15:36;;;;;;;5.13;1.40;;;;;;;;;;5070344;28;20072;-82
2021/05/24 07:18:05;;;;;;;3.88;1.50;;;;;;;;;;5069029;28;20730;-83
2021/05/24 07:20:34;;;;;;;4.70;1.33;;;;;;;;;;5071615;28;20079;-81
2021/05/24 07:23:01;;;;;;;6.22;2.00;;;;;;;;;;5071515;28;20378;-81
2021/05/24 07:25:28;;;;;;;3.85;1.40;;;;;;;;;;5071040;28;20078;-85
2021/05/24 07:27:56;;;;;;;3.47;1.48;;;;;;;;;;5069787;28;20045;-80
2021/05/24 07:30:27;;;;;;;2.92;1.20;;;;;;;;;;5059469;28;20076;-84
2021/05/24 07:32:56;;;;;;;2.75;1.48;;;;;;;;;;5059823;28;20087;-81
2021/05/24 07:35:29;;;;;;;2.00;1.30;;;;;;;;;;5059331;28;20459;-82
2021/05/24 07:37:56;;;;;;;2.92;1.42;;;;;;;;;;5069492;28;20044;-80
2021/05/24 07:40:23;;;;;;;6.00;1.60;;;;;;;;;;5066913;28;20099;-80
2021/05/24 07:42:50;;;;;;;6.68;1.65;;;;;;;;;;5066608;28;20056;-79
2021/05/24 07:45:18;;;;;;;2.53;1.40;;;;;;;;;;5067667;28;20048;-80
2021/05/24 07:47:45;;;;;;;6.47;1.38;;;;;;;;;;5065225;28;20080;-80
2021/05/24 07:50:12;;;;;;;4.57;1.30;;;;;;;;;;5066574;28;20106;-80
2021/05/24 07:52:40;;;;;;;3.85;1.27;;;;;;;;;;5067073;28;20119;-80
2021/05/24 07:55:07;;;;;;;3.78;1.67;;;;;;;;;;5067126;28;20083;-83
2021/05/24 07:57:36;;;;;;;1.55;1.10;;;;;;;;;;5069426;28;20044;-82
2021/05/24 08:00:05;;;;;;;3.53;1.02;;;;;;;;;;5068234;28;20050;-81
2021/05/24 08:02:32;;;;;;;3.83;1.17;;;;;;;;;;5062155;28;20044;-81
2021/05/24 08:05:01;;;;;;;1.38;0.90;;;;;;;;;;5061549;28;20056;-81
2021/05/24 08:07:28;;;;;;;2.85;1.10;;;;;;;;;;5065692;28;20155;-80
2021/05/24 08:09:55;;;;;;;2.65;1.02;;;;;;;;;;5067532;28;20122;-81
2021/05/24 08:12:22;;;;;;;2.08;0.95;;;;;;;;;;5065870;28;20123;-81
2021/05/24 08:14:49;;;;;;;3.00;1.23;;;;;;;;;;5068408;28;20095;-81
2021/05/24 08:17:17;;;;;;;1.38;0.80;;;;;;;;;;5067515;28;20094;-81
2021/05/24 08:19:44;;;;;;;3.40;0.80;;;;;;;;;;5067100;28;20106;-81
2021/05/24 08:22:21;;;;;;;1.55;0.80;;;;;;;;;;5069121;28;20485;-81
2021/05/24 08:24:48;;;;;;;2.25;0.90;;;;;;;;;;5068267;28;20136;-81
2021/05/24 08:27:16;;;;;;;1.25;0.70;;;;;;;;;;5067624;28;20044;-82
2021/05/24 08:29:59;;;;;;;1.02;0.80;;;;;;;;;;5067308;28;20044;-80
2021/05/24 08:32:28;;;;;;;2.10;0.88;;;;;;;;;;5066484;28;20724;-80
2021/05/24 08:34:56;;;;;;;1.75;0.80;;;;;;;;;;5066968;28;20472;-81
2021/05/24 08:37:23;;;;;;;3.72;0.93;;;;;;;;;;5068033;28;20139;-81
2021/05/24 08:39:51;;;;;;;9.23;1.42;;;;;;;;;;5068091;28;20135;-81
2021/05/24 08:42:18;;;;;;;3.30;1.00;;;;;;;;;;5068051;28;20127;-81
2021/05/24 08:44:48;;;;;;;3.20;1.05;;;;;;;;;;5066203;28;20139;-81
2021/05/24 08:47:15;;;;;;;3.55;1.10;;;;;;;;;;5068893;28;20049;-81
2021/05/24 08:50:04;;;;;;;7.53;1.00;;;;;;;;;;5068349;28;20053;-85
2021/05/24 08:52:36;;;;;;;3.30;0.90;;;;;;;;;;5068787;28;20056;-84
2021/05/24 08:55:04;;;;;;;7.15;1.08;;;;;;;;;;5068331;28;20060;-85
2021/05/24 08:57:31;;;;;;;2.40;0.80;;;;;;;;;;5069361;28;20455;-85
2021/05/24 08:59:59;;;;;;;4.35;0.90;;;;;;;;;;5068443;28;20101;-85
2021/05/24 09:02:29;;;;;;;1.95;0.98;;;;;;;;;;5068530;28;20474;-84
2021/05/24 09:05:03;;;;;;;2.05;0.73;;;;;;;;;;5069513;28;20052;-86
2021/05/24 09:07:30;;;;;;;3.40;0.90;;;;;;;;;;5069448;28;20056;-85
2021/05/24 09:10:02;;;;;;;3.80;0.73;;;;;;;;;;5068045;28;20450;-85
2021/05/24 09:12:33;;;;;;;2.97;0.80;;;;;;;;;;5069503;28;20044;-84
2021/05/24 09:15:02;;;;;;;1.15;0.68;;;;;;;;;;5066682;28;20687;-84
2021/05/24 09:17:50;;;;;;;1.55;0.82;;;;;;;;;;5063993;28;20094;-83
2021/05/24 09:20:22;;;;;;;2.33;0.65;;;;;;;;;;5065721;28;20069;-84
2021/05/24 09:23:10;;;;;;;2.38;0.70;;;;;;;;;;5068338;28;20046;-84
2021/05/24 09:25:51;;;;;;;2.17;0.80;;;;;;;;;;5067758;28;20615;-85
2021/05/24 09:28:40;;;;;;;1.65;1.00;;;;;;;;;;5067694;28;20098;-85
2021/05/24 09:31:14;;;;;;;3.67;1.20;;;;;;;;;;5067982;28;20044;-85
2021/05/24 09:33:57;;;;;;;1.05;0.57;;;;;;;;;;5067774;28;20049;-85
2021/05/24 09:36:25;;;;;;;2.78;0.70;;;;;;;;;;5061188;28;20053;-83
2021/05/24 09:38:53;;;;;;;26.88;20.88;;;;;;;;;;5068072;28;20139;-83
2021/05/24 09:41:21;;;;;;;1.83;0.82;;;;;;;;;;5068972;28;20079;-84
2021/05/24 09:43:50;;;;;;;2.03;0.70;;;;;;;;;;5068889;28;20053;-84
2021/05/24 09:46:18;;;;;;;2.53;1.02;;;;;;;;;;5069334;28;20698;-83
2021/05/24 09:48:47;;;;;;;2.67;1.13;;;;;;;;;;5067697;28;20106;-84
2021/05/24 09:51:16;;;;;;;4.25;0.98;;;;;;;;;;5069396;28;20057;-84
2021/05/24 09:54:05;;;;;;;0.82;0.70;;;;;;;;;;5067633;28;20104;-84
2021/05/24 09:56:33;;;;;;;4.07;0.60;;;;;;;;;;5068041;28;20137;-84
2021/05/24 09:59:01;;;;;;;5.72;1.10;;;;;;;;;;5067925;28;20049;-84
2021/05/24 10:01:32;;;;;;;1.80;0.73;;;;;;;;;;5067483;28;20048;-83
2021/05/24 10:03:59;;;;;;;2.95;0.65;;;;;;;;;;5067411;28;20098;-83
2021/05/24 10:06:27;;;;;;;7.90;0.77;;;;;;;;;;5068815;28;20084;-85
2021/05/24 10:08:55;;;;;;;8.70;1.05;;;;;;;;;;5068645;28;20040;-84
2021/05/24 10:11:24;;;;;;;2.00;0.75;;;;;;;;;;5067546;28;20067;-85
2021/05/24 10:13:51;;;;;;;1.60;0.68;;;;;;;;;;5066965;28;20060;-84
2021/05/24 10:16:19;;;;;;;1.63;0.70;;;;;;;;;;5066763;28;20091;-84
2021/05/24 10:18:47;;;;;;;5.78;0.70;;;;;;;;;;5066601;28;20098;-83
2021/05/24 10:21:15;;;;;;;2.42;0.85;;;;;;;;;;5068173;28;20073;-83
2021/05/24 10:23:43;;;;;;;2.33;0.65;;;;;;;;;;5067730;28;20779;-84
2021/05/24 10:26:15;;;;;;;2.75;0.82;;;;;;;;;;5067061;28;20505;-84
2021/05/24 10:28:44;;;;;;;9.75;1.45;;;;;;;;;;5068764;28;20055;-84
2021/05/24 10:31:19;;;;;;;1.67;0.95;;;;;;;;;;5071558;28;20076;-84
2021/05/24 10:33:47;;;;;;;1.65;0.80;;;;;;;;;;5069901;28;20055;-84
2021/05/24 10:36:15;;;;;;;5.85;0.90;;;;;;;;;;5071993;28;20048;-85
2021/05/24 10:38:42;;;;;;;2.72;0.88;;;;;;;;;;5071917;28;20059;-84
2021/05/24 10:41:09;;;;;;;3.08;0.80;;;;;;;;;;5070870;28;20513;-84
2021/05/24 10:44:02;;;;;;;3.08;0.50;;;;;;;;;;5070573;28;20434;-83
2021/05/24 10:46:29;;;;;;;9.43;0.73;;;;;;;;;;5072350;28;20060;-84
2021/05/24 10:49:02;;;;;;;0.82;0.63;;;;;;;;;;5070820;28;20130;-84
2021/05/24 10:51:52;;;;;;;2.95;0.60;;;;;;;;;;5072846;28;20084;-84
2021/05/24 10:54:23;;;;;;;4.20;1.00;;;;;;;;;;5070846;28;20751;-83
2021/05/24 10:56:59;;;;;;;3.03;0.80;;;;;;;;;;5071272;28;20052;-84
2021/05/24 10:59:45;;;;;;;3.78;1.00;;;;;;;;;;5070727;28;20049;-84
2021/05/24 11:02:26;;;;;;;7.63;1.23;;;;;;;;;;5070955;28;20622;-83
2021/05/24 11:05:01;;;;;;;1.00;0.60;;;;;;;;;;5071999;28;20072;-84
2021/05/24 11:07:28;;;;;;;2.92;0.80;;;;;;;;;;5072374;28;20152;-83
2021/05/24 11:10:17;;;;;;;2.85;0.90;;;;;;;;;;5072279;28;20124;-85
2021/05/24 11:13:13;;;;;;;1.65;0.60;;;;;;;;;;5071591;28;20054;-85
2021/05/24 11:15:43;;;;;;;2.25;0.65;;;;;;;;;;5050244;28;20132;-85
2021/05/24 11:18:11;;;;;;;14.50;1.33;;;;;;;;;;5050267;28;20072;-84
2021/05/24 11:20:50;;;;;;;6.10;0.82;;;;;;;;;;5059026;28;20048;-84
2021/05/24 11:25:59;;;;;;;0.80;0.60;;;;;;;;;;5071410;28;20048;-84
2021/05/24 11:28:34;;;;;;;4.55;0.98;;;;;;;;;;5069983;28;20132;-85
2021/05/24 11:31:18;;;;;;;2.30;0.57;;;;;;;;;;5069853;28;20411;-84
2021/05/24 11:33:49;;;;;;;3.13;0.80;;;;;;;;;;5068960;28;20053;-84
2021/05/24 11:36:19;;;;;;;2.83;0.50;;;;;;;;;;5071102;28;20127;-85
2021/05/24 11:38:59;;;;;;;1.50;0.70;;;;;;;;;;5070416;28;20122;-85
2021/05/24 11:41:31;;;;;;;5.50;0.68;;;;;;;;;;5070607;28;20127;-85
2021/05/24 11:44:01;;;;;;;1.67;0.70;;;;;;;;;;5070237;28;20741;-85
2021/05/24 11:46:42;;;;;;;2.33;0.63;;;;;;;;;;5070140;28;20048;-85
2021/05/24 11:49:10;;;;;;;2.05;0.77;;;;;;;;;;5069421;28;20082;-83
2021/05/24 11:51:38;;;;;;;1.15;0.70;;;;;;;;;;5069709;28;20110;-85
2021/05/24 11:54:09;;;;;;;4.38;0.93;;;;;;;;;;5070503;28;20052;-86
2021/05/24 11:56:42;;;;;;;5.43;0.60;;;;;;;;;;5069473;28;20084;-86
2021/05/24 11:59:11;;;;;;;0.80;0.65;;;;;;;;;;5070929;28;20489;-86
2021/05/24 12:01:39;;;;;;;4.07;0.82;;;;;;;;;;5070769;28;20131;-85
2021/05/24 12:04:09;;;;;;;9.38;0.60;;;;;;;;;;5068930;28;20066;-85
2021/05/24 12:06:46;;;;;;;2.25;0.70;;;;;;;;;;5069851;28;20497;-85
2021/05/24 12:09:14;;;;;;;1.23;0.50;;;;;;;;;;5069764;28;20138;-85
2021/05/24 12:11:59;;;;;;;3.22;0.57;;;;;;;;;;5069721;28;20052;-85
2021/05/24 12:14:26;;;;;;;5.50;0.85;;;;;;;;;;5061552;28;20083;-86
2021/05/24 12:16:58;;;;;;;5.57;1.00;;;;;;;;;;5068835;28;20619;-86
2021/05/24 12:19:25;;;;;;;0.93;0.43;;;;;;;;;;5067581;28;20136;-85
2021/05/24 12:21:57;;;;;;;1.00;0.60;;;;;;;;;;5063038;28;20476;-85
2021/05/24 12:24:26;;;;;;;3.58;0.60;;;;;;;;;;5070485;28;20094;-86
2021/05/24 12:26:54;;;;;;;2.05;0.98;;;;;;;;;;5069724;28;20056;-87
2021/05/24 12:29:22;;;;;;;3.90;0.73;;;;;;;;;;5070865;28;20052;-84
2021/05/24 12:32:13;;;;;;;2.25;0.60;;;;;;;;;;5061083;28;20112;-86
2021/05/24 12:34:43;;;;;;;3.80;0.80;;;;;;;;;;5076587;28;20056;-85
2021/05/24 12:37:13;;;;;;;3.30;0.65;;;;;;;;;;5065577;28;20069;-87
2021/05/24 12:39:43;;;;;;;3.90;0.75;;;;;;;;;;5050607;28;20622;-85
2021/05/24 12:42:10;;;;;;;1.85;0.77;;;;;;;;;;5063252;28;20075;-87
2021/05/24 12:44:38;;;;;;;2.05;0.50;;;;;;;;;;5068605;28;20701;-87
2021/05/24 12:47:18;;;;;;;0.77;0.75;;;;;;;;;;5069163;28;20945;-85
2021/05/24 12:49:47;;;;;;;2.90;0.70;;;;;;;;;;5070025;28;20088;-86
2021/05/24 12:52:17;;;;;;;1.15;0.68;;;;;;;;;;5069619;28;20148;-86
2021/05/24 12:54:51;;;;;;;2.60;0.55;;;;;;;;;;5068346;28;20144;-85
2021/05/24 12:57:29;;;;;;;7.80;1.00;;;;;;;;;;5068841;28;20052;-84
2021/05/24 12:59:57;;;;;;;2.22;0.60;;;;;;;;;;5067163;28;20049;-85
2021/05/24 13:02:29;;;;;;;0.82;0.63;;;;;;;;;;5063522;28;20083;-87
2021/05/24 13:05:09;;;;;;;2.92;1.02;;;;;;;;;;5064147;28;20139;-86
2021/05/24 13:07:46;;;;;;;1.60;0.65;;;;;;;;;;5068463;28;20049;-86
2021/05/24 13:10:21;;;;;;;2.08;0.60;;;;;;;;;;5068348;28;20091;-87
2021/05/24 13:12:50;;;;;;;3.33;0.60;;;;;;;;;;5068627;28;20696;-82
2021/05/24 13:15:31;;;;;;;4.93;0.88;;;;;;;;;;5068161;28;20123;-86
2021/05/24 13:18:17;;;;;;;3.28;0.50;;;;;;;;;;5068226;28;20193;-84
2021/05/24 13:31:27;;;;;;;2.25;0.68;;;;;;;;;;5068809;28;20139;-83
2021/05/24 13:33:56;;;;;;;1.63;0.80;;;;;;;;;;5067371;28;20151;-85
2021/05/24 13:36:27;;;;;;;2.25;0.52;;;;;;;;;;5067530;28;20056;-85
2021/05/24 13:38:59;;;;;;;1.40;0.60;;;;;;;;;;5067435;28;20052;-85
2021/05/24 13:41:26;;;;;;;1.95;0.70;;;;;;;;;;5063050;28;20076;-86
2021/05/24 13:43:53;;;;;;;3.95;0.80;;;;;;;;;;5077345;28;20493;-86
2021/05/24 13:46:21;;;;;;;6.38;1.80;;;;;;;;;;5064433;28;20045;-85
2021/05/24 13:48:49;;;;;;;2.15;0.50;;;;;;;;;;5067156;28;20484;-88
2021/05/24 13:51:23;;;;;;;1.08;0.70;;;;;;;;;;5060966;28;20040;-87
2021/05/24 13:53:57;;;;;;;2.50;0.50;;;;;;;;;;5069833;28;20139;-92
2021/05/24 13:56:26;;;;;;;1.45;0.60;;;;;;;;;;5051807;28;20049;-88
2021/05/24 13:58:59;;;;;;;4.60;0.60;;;;;;;;;;5051243;28;20041;-88
2021/05/24 14:01:26;;;;;;;3.28;0.90;;;;;;;;;;5054991;28;20489;-89
2021/05/24 14:03:54;;;;;;;1.80;0.55;;;;;;;;;;5073655;28;20075;-90
2021/05/24 14:06:21;;;;;;;2.30;0.73;;;;;;;;;;5067038;28;20060;-87
2021/05/24 14:08:49;;;;;;;2.17;0.60;;;;;;;;;;5074799;28;20098;-85
2021/05/24 14:11:17;;;;;;;1.00;0.60;;;;;;;;;;5073449;28;20099;-88
2021/05/24 14:13:45;;;;;;;2.90;1.13;;;;;;;;;;5074925;28;20055;-87
2021/05/24 14:16:14;;;;;;;2.92;0.50;;;;;;;;;;5074745;28;20048;-87
2021/05/24 14:18:42;;;;;;;1.45;0.50;;;;;;;;;;5071843;28;20052;-83
2021/05/24 14:21:10;;;;;;;2.25;0.60;;;;;;;;;;5070503;28;20040;-85
2021/05/24 14:23:38;;;;;;;7.35;0.70;;;;;;;;;;5071980;28;20763;-85
2021/05/24 14:26:05;;;;;;;1.38;0.50;;;;;;;;;;5073638;28;20052;-85
2021/05/24 14:28:32;;;;;;;3.13;0.52;;;;;;;;;;5074711;28;20473;-84
2021/05/24 14:31:03;;;;;;;2.92;0.50;;;;;;;;;;5067099;28;20080;-84
2021/05/24 14:33:32;;;;;;;3.25;0.60;;;;;;;;;;5070944;28;20635;-83
2021/05/24 14:35:59;;;;;;;1.40;0.75;;;;;;;;;;5054405;28;20135;-82
2021/05/24 14:38:27;;;;;;;0.55;0.40;;;;;;;;;;5069467;28;20074;-81
2021/05/24 14:40:55;;;;;;;1.75;0.68;;;;;;;;;;5070549;28;20088;-78
2021/05/24 14:43:22;;;;;;;2.15;0.70;;;;;;;;;;5059004;28;20072;-78
2021/05/24 14:45:49;;;;;;;2.80;0.40;;;;;;;;;;5068020;28;20048;-78
2021/05/24 14:48:17;;;;;;;3.05;0.70;;;;;;;;;;5067418;28;20052;-78
2021/05/24 14:50:46;;;;;;;0.88;0.60;;;;;;;;;;5069980;28;20127;-79
2021/05/24 14:53:17;;;;;;;0.95;0.60;;;;;;;;;;5070585;28;20053;-79
2021/05/24 14:55:49;;;;;;;1.77;0.35;;;;;;;;;;5068967;28;20060;-78
2021/05/24 14:58:16;;;;;;;2.83;0.50;;;;;;;;;;5070417;28;20048;-81
2021/05/24 15:00:43;;;;;;;2.08;0.40;;;;;;;;;;5068768;28;20055;-79
2021/05/24 15:03:11;;;;;;;1.20;0.47;;;;;;;;;;5069739;28;20058;-80
2021/05/24 15:05:38;;;;;;;1.30;0.60;;;;;;;;;;5068024;28;20174;-79